Flight Track Log - Related Links

Times and Time Zones

All times are in EST time to prevent confusion due to time zone crossing. See the FLG4262 flight status page for this flight to view local times or setup timezone preferences in your user account.


Time Position Orientation Groundspeed Altitude Reporting Facility
EST Latitude Longitude Course Direction KTS MPH feet Rate Location/Type
Fri 03:58:23 PM 42.2028 -83.3553 188° South 151 174 1,400  Level Cleveland Center
Fri 03:58:35 PM 42.1942 -83.3569 188° South 158 182 1,800 2,055 Climbing Cleveland Center
Fri 03:59:36 PM 42.1425 -83.3497 174° South 199 229 3,900 1,907 Climbing Cleveland Center
Fri 04:00:22 PM 42.0947 -83.3258 160° South 226 260 5,200 1,839 Climbing Cleveland Center
Fri 04:00:38 PM 42.0869 -83.3081 121° Southeast 301 346 5,800 2,613 Climbing Cleveland Center
Fri 04:01:24 PM 42.0878 -83.2169 89° East 300 345 7,900 2,477 Climbing Cleveland Center
Fri 04:02:27 PM 42.1286 -83.1108 63° Northeast 319 367 10,300 1,872 Climbing Cleveland Center
Fri 04:03:29 PM 42.1733 -82.9892 64° Northeast 365 420 11,800 1,694 Climbing Cleveland Center
Fri 04:04:31 PM 42.2208 -82.8625 63° Northeast 380 437 13,800 1,935 Climbing Cleveland Center
Fri 04:05:33 PM 42.2672 -82.7331 64° Northeast 387 445 15,800 1,839 Climbing Cleveland Center
Fri 04:06:35 PM 42.2969 -82.5694 76° East 388 447 17,600 1,306 Climbing Cleveland Center
Fri 04:07:37 PM 42.2975 -82.4214 90° East 393 452 18,500 871 Climbing Cleveland Center
Fri 04:08:39 PM 42.3003 -82.2658 89° East 409 471 19,400 1,016 Climbing Cleveland Center
Fri 04:09:41 PM 42.3025 -82.0922 89° East 423 487 20,600 1,065 Climbing Cleveland Center
Fri 04:10:43 PM 42.3044 -81.9278 89° East 429 494 21,600 919 Climbing Cleveland Center
Fri 04:11:45 PM 42.3056 -81.7644 89° East 431 496 22,500 774 Climbing Cleveland Center
Fri 04:12:47 PM 42.3072 -81.5972 89° East 437 503 23,200 581 Climbing Cleveland Center
Fri 04:13:49 PM 42.3081 -81.4256 90° East 447 514 23,700 484 Climbing Cleveland Center
Fri 04:14:51 PM 42.3097 -81.2497 89° East 459 528 24,200 532 Climbing Cleveland Center
Fri 04:15:53 PM 42.3097 -81.0403 90° East 469 540 24,800 384 Climbing Cleveland Center
Fri 04:16:56 PM 42.3106 -80.8606 90° East 473 544 25,000 96 Climbing Cleveland Center
Fri 04:17:58 PM 42.3106 -80.6861 90° East 463 533 25,000  Level Cleveland Center
Fri 04:19:00 PM 42.3103 -80.5133 90° East 456 525 25,000  Level Cleveland Center
Fri 04:20:02 PM 42.3094 -80.3431 90° East 451 519 25,000  Level Cleveland Center
Fri 04:21:04 PM 42.3092 -80.1739 90° East 447 514 25,000  Level Cleveland Center
Fri 04:22:06 PM 42.3075 -80.0056 91° East 444 511 25,000  Level Cleveland Center
Fri 04:23:08 PM 42.3061 -79.8225 91° East 445 512 25,000  Level Cleveland Center
Fri 04:24:10 PM 42.3039 -79.6544 91° East 449 517 25,000  Level Cleveland Center
Fri 04:25:12 PM 42.3025 -79.4869 91° East 449 517 25,000  Level Cleveland Center
Fri 04:26:14 PM 42.3008 -79.3183 91° East 450 518 25,000  Level Cleveland Center
Fri 04:27:16 PM 42.2975 -79.1147 91° East 453 521 25,000  Level Cleveland Center
Fri 04:28:19 PM 42.2953 -78.9467 91° East 451 519 25,000  Level Cleveland Center
Fri 04:29:21 PM 42.2936 -78.7781 91° East 450 518 25,000  Level Cleveland Center
Fri 04:30:23 PM 42.2897 -78.6061 92° East 454 522 25,000  Level Cleveland Center
Fri 04:31:25 PM 42.2869 -78.4333 91° East 460 529 25,000 -97 Level Cleveland Center
Fri 04:32:27 PM 42.2822 -78.2222 92° East 468 539 24,800 -581 Descending Cleveland Center
Fri 04:33:29 PM 42.2769 -78.0464 92° East 472 543 23,800 -968 Descending Cleveland Center
Fri 04:34:31 PM 42.2728 -77.8753 92° East 466 536 22,800 -1,161 Descending Cleveland Center
Fri 04:35:33 PM 42.2683 -77.7114 92° East 448 516 21,400 -871 Descending Cleveland Center
Fri 04:36:35 PM 42.2636 -77.5469 92° East 445 512 21,000 -194 Descending Cleveland Center
Fri 04:37:37 PM 42.2586 -77.3519 92° East 439 505 21,000  Level Cleveland Center
Fri 04:38:39 PM 42.2533 -77.1889 92° East 440 506 21,000 -130 Level Cleveland Center
Fri 04:39:09 PM 42.2494 -77.1158 94° East 445 512 20,800 -1,800 Descending New York Center
Fri 04:40:09 PM 42.2453 -76.9558 92° East 445 512 18,300 -2,426 Descending New York Center
Fri 04:40:43 PM 42.2425 -76.8725 93° East 421 484 17,000 -2,536 Descending Cleveland Center
Fri 04:41:46 PM 42.2369 -76.7267 93° East 398 458 14,200 -2,400 Descending Cleveland Center
Fri 04:42:48 PM 42.2311 -76.5644 93° East 364 419 12,000 -1,839 Descending Cleveland Center
Fri 04:43:50 PM 42.2375 -76.4450 86° East 325 374 10,400 -1,694 Descending Cleveland Center
Fri 04:44:52 PM 42.2481 -76.3372 82° East 313 360 8,500 -1,887 Descending Cleveland Center
Fri 04:45:54 PM 42.2567 -76.2236 84° East 308 354 6,500 -1,839 Descending Cleveland Center
Fri 04:46:56 PM 42.2675 -76.1081 83° East 271 312 4,700 -1,403 Descending Cleveland Center
Fri 04:47:58 PM 42.2753 -76.0281 82° East 231 266 3,600 -1,091 Descending Cleveland Center
Fri 04:49:08 PM 42.2389 -76.0056 155° Southeast 155 178 2,300 -1,114 Descending New York Center

Login

Don't have an account? Register now (free) for customized features, flight alerts, and more!